Time;durP1;ratioP1;P1;durP2;ratioP2;P2;SDS_P1;SDS_P2;PMS_P1;PMS_P2;Temp;Humidity;BMP_temperature;BMP_pressure;BME280_temperature;BME280_humidity;BME280_pressure;Samples;Min_cycle;Max_cycle;Signal;HPM_P1;HPM_P2
2022/10/28 00:00:13;;;;;;;7.32;3.25;;;;;;;18.08;46.66;101496.75;4969678;28;20500;-71
2022/10/28 00:02:40;;;;;;;7.03;2.88;;;;;;;18.05;46.94;101495.22;4970009;28;20050;-71
2022/10/28 00:05:09;;;;;;;6.65;3.50;;;;;;;18.05;47.11;101488.81;4970911;28;20046;-71
2022/10/28 00:07:37;;;;;;;6.55;2.95;;;;;;;18.04;46.92;101496.25;4967789;28;20053;-71
2022/10/28 00:10:07;;;;;;;4.72;2.63;;;;;;;18.06;46.86;101496.09;4966494;28;20050;-71
2022/10/28 00:12:36;;;;;;;6.97;2.92;;;;;;;18.02;46.88;101487.22;4961469;28;20067;-71
2022/10/28 00:15:04;;;;;;;6.10;3.03;;;;;;;18.04;47.06;101489.84;4968793;28;20110;-71
2022/10/28 00:17:32;;;;;;;5.25;2.63;;;;;;;18.02;46.95;101480.81;4965172;28;21650;-71
2022/10/28 00:20:00;;;;;;;6.95;3.17;;;;;;;18.01;46.57;101479.97;4967972;28;20101;-71
2022/10/28 00:22:28;;;;;;;6.78;3.22;;;;;;;18.01;46.77;101474.41;4958376;28;20050;-71
2022/10/28 00:24:56;;;;;;;6.22;3.15;;;;;;;18.00;47.04;101477.34;4970684;28;20463;-71
2022/10/28 00:27:25;;;;;;;4.85;2.53;;;;;;;18.02;46.66;101473.38;4954757;28;20046;-71
2022/10/28 00:29:53;;;;;;;5.05;2.60;;;;;;;18.00;46.72;101475.44;4949317;28;20397;-71
2022/10/28 00:32:21;;;;;;;6.93;3.00;;;;;;;18.00;46.98;101471.81;4942663;28;20043;-71
2022/10/28 00:34:49;;;;;;;5.50;2.78;;;;;;;18.00;46.59;101474.56;4949611;29;20047;-71
2022/10/28 00:37:17;;;;;;;6.45;3.25;;;;;;;17.99;46.65;101462.63;4941707;28;20487;-71
2022/10/28 00:39:45;;;;;;;5.38;2.83;;;;;;;17.99;46.71;101459.84;4949331;28;20176;-71
2022/10/28 00:42:17;;;;;;;6.90;2.97;;;;;;;18.01;46.29;101460.56;4949475;28;20043;-71
2022/10/28 00:44:53;;;;;;;;;;;;;;;17.72;47.57;101454.56;4945290;28;20509;-71
2022/10/28 00:47:31;;;;;;;4.63;2.65;;;;;;;17.97;46.75;101469.41;4955634;28;19928;-71
2022/10/28 00:50:11;;;;;;;7.25;2.90;;;;;;;17.99;46.67;101459.84;4964267;28;20118;-71
2022/10/28 00:52:40;;;;;;;6.15;3.00;;;;;;;17.99;46.77;101459.00;4963536;28;20160;-71
2022/10/28 00:55:09;;;;;;;6.20;3.30;;;;;;;17.98;46.78;101454.50;4966148;28;20051;-71
2022/10/28 00:57:38;;;;;;;5.60;3.00;;;;;;;17.97;46.47;101450.88;4949295;28;20134;-71
2022/10/28 01:00:09;;;;;;;6.43;2.90;;;;;;;17.99;46.59;101457.09;4939708;28;20047;-71
2022/10/28 01:02:43;;;;;;;7.13;3.10;;;;;;;17.99;46.31;101468.16;4939746;29;20063;-71
2022/10/28 01:05:14;;;;;;;5.82;2.72;;;;;;;17.99;46.58;101481.16;4940459;29;20411;-71
2022/10/28 01:07:43;;;;;;;5.97;3.03;;;;;;;17.99;46.72;101482.03;4935865;28;20118;-71
2022/10/28 01:10:12;;;;;;;5.68;3.05;;;;;;;18.00;46.50;101488.44;4938810;29;20059;-71
2022/10/28 01:12:52;;;;;;;5.43;2.88;;;;;;;18.02;46.50;101494.69;4934276;28;20052;-71
2022/10/28 01:15:31;;;;;;;5.38;2.70;;;;;;;18.03;46.56;101474.25;4940553;29;20048;-70
2022/10/28 01:18:10;;;;;;;5.78;2.88;;;;;;;18.03;46.29;101477.03;4950896;28;20572;-71
2022/10/28 01:21:13;;;;;;;6.63;3.00;;;;;;;18.01;45.86;101466.09;4961541;28;20061;-71
2022/10/28 01:23:54;;;;;;;5.47;2.60;;;;;;;17.99;45.88;101459.84;4954607;28;20137;-71
2022/10/28 01:26:36;;;;;;;5.20;2.60;;;;;;;18.02;46.03;101453.13;4962885;28;20485;-71
2022/10/28 01:29:35;;;;;;;5.60;2.97;;;;;;;17.98;46.38;101452.59;4951735;28;20526;-71
2022/10/28 01:32:10;;;;;;;7.05;3.17;;;;;;;18.02;46.18;101447.59;4965987;28;20066;-71
2022/10/28 01:34:47;;;;;;;5.28;2.67;;;;;;;18.01;46.40;101459.69;4966189;28;20137;-71
2022/10/28 01:37:19;;;;;;;4.68;2.67;;;;;;;18.01;46.43;101463.34;4959819;28;20046;-71
2022/10/28 01:39:51;;;;;;;5.47;2.80;;;;;;;18.03;46.06;101460.41;4967564;28;20049;-71
2022/10/28 01:42:26;;;;;;;6.18;2.78;;;;;;;18.02;46.27;101464.22;4966941;28;20423;-71
2022/10/28 01:45:03;;;;;;;5.57;2.95;;;;;;;18.04;45.94;101471.31;4966677;28;20153;-70
2022/10/28 01:47:37;;;;;;;5.60;2.85;;;;;;;18.03;46.14;101458.50;4959200;28;20412;-71
2022/10/28 01:50:08;;;;;;;7.53;3.00;;;;;;;18.03;46.14;101454.88;4958211;28;20047;-72
2022/10/28 01:52:39;;;;;;;4.75;2.70;;;;;;;18.03;46.38;101444.66;4959420;28;20419;-71
2022/10/28 01:55:11;;;;;;;6.55;2.70;;;;;;;18.05;46.02;101461.13;4964890;28;20081;-71
2022/10/28 01:57:41;;;;;;;5.83;3.00;;;;;;;18.03;46.37;101454.88;4954691;28;21227;-71
2022/10/28 02:00:11;;;;;;;5.50;2.95;;;;;;;18.05;46.31;101452.81;4965544;28;20380;-71
2022/10/28 02:02:41;;;;;;;4.55;3.05;;;;;;;18.06;46.29;101452.59;4962908;28;20055;-71
2022/10/28 02:05:37;;;;;;;4.68;3.13;;;;;;;18.01;45.69;101454.16;4966829;28;20045;-71
2022/10/28 02:08:20;;;;;;;6.13;3.10;;;;;;;18.06;45.78;101454.53;4965907;28;20042;-71
2022/10/28 02:11:05;;;;;;;7.45;2.90;;;;;;;18.06;46.06;101449.84;4954478;28;20543;-71
2022/10/28 02:13:43;;;;;;;5.53;2.53;;;;;;;18.07;45.75;101447.94;4952808;28;20500;-71
2022/10/28 02:16:20;;;;;;;4.65;2.45;;;;;;;18.08;45.86;101449.66;4965287;28;20043;-71
2022/10/28 02:19:00;;;;;;;5.90;2.83;;;;;;;18.06;45.49;101427.69;4966951;28;20270;-71
2022/10/28 02:21:37;;;;;;;4.55;2.80;;;;;;;18.07;45.69;101436.84;4956999;28;20043;-71
2022/10/28 02:24:13;;;;;;;8.40;3.13;;;;;;;18.07;45.75;101445.16;4962588;28;20047;-71
2022/10/28 02:26:46;;;;;;;4.55;2.33;;;;;;;18.05;45.82;101436.19;4958200;28;20061;-71
2022/10/28 02:29:20;;;;;;;7.53;2.65;;;;;;;18.05;45.56;101427.88;4964294;28;20043;-71
2022/10/28 02:31:53;;;;;;;4.78;2.35;;;;;;;18.05;46.04;101441.72;4960934;28;20146;-71
2022/10/28 02:34:30;;;;;;;6.65;2.30;;;;;;;18.06;45.62;101436.00;4964552;28;20046;-73
2022/10/28 02:37:01;;;;;;;6.00;2.50;;;;;;;18.05;45.86;101434.28;4958793;28;20076;-73
2022/10/28 02:39:34;;;;;;;5.65;3.20;;;;;;;18.01;45.75;101424.56;4957367;28;20074;-73
2022/10/28 02:42:06;;;;;;;6.63;3.10;;;;;;;18.00;45.90;101421.97;4952277;28;20043;-73
2022/10/28 02:44:38;;;;;;;6.45;2.70;;;;;;;18.00;45.50;101424.72;4968460;28;20039;-73
2022/10/28 02:47:11;;;;;;;5.57;2.42;;;;;;;18.00;45.86;101425.59;4960487;28;20054;-73
2022/10/28 02:49:45;;;;;;;4.75;2.90;;;;;;;18.00;45.59;101419.19;4962519;28;20568;-73
2022/10/28 02:52:15;;;;;;;6.68;2.38;;;;;;;17.98;45.45;101418.47;4962214;28;20053;-73
2022/10/28 02:54:47;;;;;;;4.82;2.70;;;;;;;17.98;45.89;101427.66;4957154;28;20137;-73
2022/10/28 02:57:18;;;;;;;5.50;3.33;;;;;;;17.94;45.95;101420.75;4955033;28;20590;-73
2022/10/28 02:59:52;;;;;;;7.05;2.55;;;;;;;17.96;45.93;101406.72;4961293;28;20047;-73
2022/10/28 03:02:20;;;;;;;4.90;2.85;;;;;;;17.92;45.94;101411.72;4957049;28;20049;-73
2022/10/28 03:04:49;;;;;;;5.50;2.80;;;;;;;17.93;45.64;101412.59;4959736;28;20417;-73
2022/10/28 03:07:18;;;;;;;5.47;2.85;;;;;;;17.90;46.01;101413.78;4953832;28;20043;-73
2022/10/28 03:09:46;;;;;;;7.45;3.13;;;;;;;17.89;45.60;101406.53;4961925;28;20039;-73
2022/10/28 03:12:13;;;;;;;4.50;3.03;;;;;;;17.88;45.94;101404.81;4964111;28;20053;-73
2022/10/28 03:14:42;;;;;;;7.32;2.75;;;;;;;17.88;45.76;101403.94;4962474;28;20038;-73
2022/10/28 03:17:10;;;;;;;5.10;2.70;;;;;;;17.86;45.68;101409.66;4950965;28;20133;-73
2022/10/28 03:19:37;;;;;;;4.97;2.72;;;;;;;17.85;45.99;101412.56;4954222;28;20043;-73
2022/10/28 03:22:07;;;;;;;7.15;2.83;;;;;;;17.85;45.81;101407.91;4964038;28;20134;-73
2022/10/28 03:24:35;;;;;;;7.60;2.85;;;;;;;17.83;46.11;101404.44;4971705;28;20054;-73
2022/10/28 03:27:03;;;;;;;5.93;2.80;;;;;;;17.82;45.54;101401.81;4970910;28;20050;-73
2022/10/28 03:29:31;;;;;;;6.13;2.90;;;;;;;17.81;45.65;101394.59;4962270;28;20042;-72
2022/10/28 03:31:58;;;;;;;5.90;2.97;;;;;;;17.79;45.61;101391.97;4970841;28;20088;-73
2022/10/28 03:34:26;;;;;;;6.53;3.10;;;;;;;17.79;46.07;101393.88;4971209;28;20043;-73
2022/10/28 03:36:54;;;;;;;7.07;2.85;;;;;;;17.78;46.16;101390.25;4959654;28;20054;-73
2022/10/28 03:39:23;;;;;;;5.50;2.80;;;;;;;17.79;45.57;101388.34;4970276;28;20042;-72
2022/10/28 03:41:51;;;;;;;5.93;2.70;;;;;;;17.75;45.91;101376.72;4966371;28;20042;-72
2022/10/28 03:44:19;;;;;;;5.65;2.95;;;;;;;17.74;45.91;101375.84;4964490;28;20046;-72
2022/10/28 03:46:47;;;;;;;5.72;2.60;;;;;;;17.73;45.54;101373.25;4969885;28;20129;-72
2022/10/28 03:49:14;;;;;;;4.70;3.10;;;;;;;17.72;46.01;101374.28;4967068;28;20040;-73
2022/10/28 03:51:42;;;;;;;6.65;2.90;;;;;;;17.72;45.82;101379.81;4970868;28;20046;-73
2022/10/28 03:54:10;;;;;;;7.05;2.63;;;;;;;17.71;45.96;101380.84;4969327;28;20060;-73
2022/10/28 03:56:40;;;;;;;6.13;2.55;;;;;;;17.73;45.86;101364.94;4966205;28;20054;-72
2022/10/28 03:59:09;;;;;;;5.97;2.60;;;;;;;17.72;45.46;101369.63;4962276;28;20053;-73
2022/10/28 04:01:36;;;;;;;6.45;2.78;;;;;;;17.70;45.71;101366.13;4969055;28;20043;-73
2022/10/28 04:04:05;;;;;;;5.82;2.60;;;;;;;17.71;45.81;101362.34;4970638;28;20760;-73
2022/10/28 04:06:33;;;;;;;6.75;2.80;;;;;;;17.70;46.05;101360.59;4961113;28;20569;-72
2022/10/28 04:09:01;;;;;;;5.18;2.70;;;;;;;17.72;45.90;101368.75;4971155;28;20042;-72
2022/10/28 04:11:28;;;;;;;6.05;2.97;;;;;;;17.72;45.77;101368.75;4968874;28;20058;-72
2022/10/28 04:13:57;;;;;;;7.10;2.85;;;;;;;17.74;45.43;101367.53;4970265;28;20038;-72
2022/10/28 04:16:25;;;;;;;7.60;3.33;;;;;;;17.73;45.94;101367.72;4954458;28;20044;-73
2022/10/28 04:18:53;;;;;;;7.57;3.05;;;;;;;17.74;45.98;101369.44;4970659;28;20503;-73
2022/10/28 04:21:21;;;;;;;6.72;3.20;;;;;;;17.73;45.76;101364.94;4968514;28;20035;-73
2022/10/28 04:23:49;;;;;;;5.43;2.72;;;;;;;17.71;45.67;101362.34;4969741;28;20049;-74
2022/10/28 04:26:16;;;;;;;6.05;2.88;;;;;;;17.71;45.75;101372.53;4954510;28;20056;-74
2022/10/28 04:28:44;;;;;;;5.35;2.78;;;;;;;17.73;45.45;101378.78;4966654;28;20055;-74
2022/10/28 04:31:13;;;;;;;5.53;2.53;;;;;;;17.74;45.77;101386.06;4970640;28;20054;-74
2022/10/28 04:33:41;;;;;;;6.55;2.72;;;;;;;17.71;45.44;101383.63;4958975;28;20043;-74
2022/10/28 04:36:09;;;;;;;7.32;2.80;;;;;;;17.72;45.80;101393.66;4950657;28;20082;-75
2022/10/28 04:38:37;;;;;;;5.82;2.65;;;;;;;17.72;45.84;101396.44;4959592;28;20086;-74
2022/10/28 04:41:05;;;;;;;6.18;2.80;;;;;;;17.73;45.85;101392.63;4969132;28;20047;-75
2022/10/28 04:43:33;;;;;;;7.00;2.70;;;;;;;17.73;45.56;101392.63;4958185;28;20110;-75
2022/10/28 04:46:04;;;;;;;5.25;2.83;;;;;;;17.73;45.31;101390.69;4959403;28;20129;-75
2022/10/28 04:48:34;;;;;;;7.10;2.92;;;;;;;17.74;45.62;101392.47;4970779;28;20093;-76
2022/10/28 04:51:02;;;;;;;6.38;2.88;;;;;;;17.73;45.40;101401.75;4967485;28;20534;-75
2022/10/28 04:53:30;;;;;;;7.68;3.10;;;;;;;17.71;45.90;101394.69;4967294;28;20055;-75
2022/10/28 04:55:58;;;;;;;8.38;3.10;;;;;;;17.73;45.67;101395.41;4970735;28;20481;-75
2022/10/28 04:58:27;;;;;;;6.90;2.92;;;;;;;17.72;45.19;101391.75;4958066;28;20509;-74
2022/10/28 05:00:54;;;;;;;7.90;3.13;;;;;;;17.71;45.75;101400.22;4971275;28;20049;-77
2022/10/28 05:03:23;;;;;;;6.05;3.13;;;;;;;17.70;45.72;101396.59;4970455;28;20138;-79
2022/10/28 05:05:52;;;;;;;6.13;2.75;;;;;;;17.73;45.32;101393.47;4975580;28;20441;-78
2022/10/28 05:08:20;;;;;;;5.55;2.58;;;;;;;17.69;45.59;101381.00;4976761;28;20419;-77
2022/10/28 05:10:49;;;;;;;6.50;2.90;;;;;;;17.70;45.57;101379.09;4977462;28;20058;-77
2022/10/28 05:13:17;;;;;;;5.65;2.63;;;;;;;17.70;45.58;101390.19;4974151;28;20046;-77
2022/10/28 05:15:47;;;;;;;7.70;2.80;;;;;;;17.71;45.43;101391.91;4962849;28;20051;-79
2022/10/28 05:18:15;;;;;;;5.88;2.80;;;;;;;17.70;45.34;101393.81;4957180;28;20063;-78
2022/10/28 05:20:43;;;;;;;5.68;2.58;;;;;;;17.69;45.33;101392.09;4973820;28;20581;-77
2022/10/28 05:23:12;;;;;;;5.90;2.97;;;;;;;17.72;45.45;101391.75;4953570;28;20039;-77
2022/10/28 05:25:42;;;;;;;6.55;2.90;;;;;;;17.72;45.14;101391.75;4954796;29;20055;-77
2022/10/28 05:28:10;;;;;;;4.88;2.72;;;;;;;17.69;45.26;101396.75;4972822;28;20852;-76
2022/10/28 05:30:38;;;;;;;6.85;3.30;;;;;;;17.68;45.32;101384.81;4967589;28;20479;-78
2022/10/28 05:33:06;;;;;;;5.70;2.72;;;;;;;17.68;45.57;101387.56;4970747;28;20091;-77
2022/10/28 05:35:34;;;;;;;7.25;2.80;;;;;;;17.68;45.60;101390.34;4963631;28;20093;-76
2022/10/28 05:38:02;;;;;;;5.25;2.90;;;;;;;17.67;45.61;101385.84;4954828;28;20062;-78
2022/10/28 05:40:32;;;;;;;9.32;3.80;;;;;;;17.69;45.33;101399.50;4965793;28;20043;-77
2022/10/28 05:43:00;;;;;;;8.63;3.33;;;;;;;17.66;45.79;101391.53;4962526;28;20508;-77
2022/10/28 05:45:28;;;;;;;5.70;2.88;;;;;;;17.67;45.33;101398.81;4977785;28;20035;-78
2022/10/28 05:48:01;;;;;;;6.82;3.28;;;;;;;17.65;45.55;101395.34;4969751;28;20051;-77
2022/10/28 05:50:29;;;;;;;8.07;3.35;;;;;;;17.65;45.84;101393.44;4970763;28;20071;-78
2022/10/28 05:52:57;;;;;;;6.05;3.10;;;;;;;17.64;45.18;101393.63;4971337;28;20051;-77
2022/10/28 05:55:28;;;;;;;7.18;2.65;;;;;;;17.66;45.61;101397.06;4973873;28;20074;-78
2022/10/28 05:57:57;;;;;;;14.32;3.65;;;;;;;17.65;45.72;101395.34;4966352;28;20106;-79
2022/10/28 06:00:26;;;;;;;5.85;3.10;;;;;;;17.63;45.63;101398.28;4973758;28;20047;-77
2022/10/28 06:03:02;;;;;;;5.53;3.00;;;;;;;17.65;45.07;101387.03;4966223;28;20110;-78
2022/10/28 06:05:30;;;;;;;5.05;2.70;;;;;;;17.62;45.68;101392.91;4974077;28;20039;-78
2022/10/28 06:07:58;;;;;;;4.30;2.55;;;;;;;17.62;45.63;101393.78;4961027;28;20075;-78
2022/10/28 06:10:25;;;;;;;6.10;2.90;;;;;;;17.61;45.71;101385.66;4953335;28;20089;-77
2022/10/28 06:12:55;;;;;;;5.97;3.15;;;;;;;17.62;45.61;101391.03;4960722;28;20228;-73
2022/10/28 06:15:25;;;;;;;6.30;3.10;;;;;;;17.62;45.24;101390.16;4966086;28;20042;-74
2022/10/28 06:17:52;;;;;;;8.07;3.13;;;;;;;17.61;45.29;101392.06;4967646;28;20051;-73
2022/10/28 06:20:21;;;;;;;7.22;2.92;;;;;;;17.61;45.63;101391.19;4957938;28;20051;-74
2022/10/28 06:22:50;;;;;;;7.15;3.05;;;;;;;17.61;45.70;101393.94;4969229;28;20512;-73
2022/10/28 06:25:19;;;;;;;5.55;3.10;;;;;;;17.61;45.74;101397.59;4968719;28;20074;-72
2022/10/28 06:27:52;;;;;;;5.50;2.70;;;;;;;17.62;45.29;101402.09;4968413;28;20133;-73
2022/10/28 06:30:21;;;;;;;6.20;2.80;;;;;;;17.60;45.47;101409.69;4950126;29;20047;-74
2022/10/28 06:32:50;;;;;;;6.15;2.88;;;;;;;17.63;45.68;101411.28;4963484;28;20047;-72
2022/10/28 06:35:19;;;;;;;7.47;3.10;;;;;;;17.62;45.86;101415.06;4968419;28;20039;-72
2022/10/28 06:37:46;;;;;;;7.43;2.90;;;;;;;17.61;45.79;101414.19;4966149;28;20050;-72
2022/10/28 06:40:14;;;;;;;7.10;2.78;;;;;;;17.62;45.31;101415.06;4969643;28;20109;-72
2022/10/28 06:42:42;;;;;;;7.20;2.63;;;;;;;17.62;45.49;101413.16;4955380;28;20048;-71
2022/10/28 06:45:11;;;;;;;6.70;2.88;;;;;;;17.63;45.33;101402.97;4950364;29;20043;-72
2022/10/28 06:47:38;;;;;;;6.20;3.08;;;;;;;17.62;45.74;101410.41;4949118;28;20091;-72
2022/10/28 06:50:10;;;;;;;7.25;2.75;;;;;;;17.65;45.42;101412.81;4960515;28;20125;-72
2022/10/28 06:52:38;;;;;;;5.80;3.00;;;;;;;17.64;45.47;101421.31;4970418;28;20452;-72
2022/10/28 06:55:06;;;;;;;6.95;3.05;;;;;;;17.67;45.41;101420.97;4973558;28;20047;-72
2022/10/28 06:57:34;;;;;;;7.85;3.40;;;;;;;17.66;45.68;101422.84;4971455;28;20092;-72
2022/10/28 07:00:02;;;;;;;6.30;3.50;;;;;;;17.65;45.80;101423.00;4972556;28;20129;-72
2022/10/28 07:02:30;;;;;;;7.28;2.92;;;;;;;17.67;45.71;101426.50;4972299;28;20030;-73
2022/10/28 07:04:58;;;;;;;6.70;2.90;;;;;;;17.68;45.63;101419.94;4973117;28;20043;-72
2022/10/28 07:07:27;;;;;;;5.63;2.63;;;;;;;17.70;45.67;101420.63;4973016;28;20050;-72
2022/10/28 07:09:55;;;;;;;7.65;3.30;;;;;;;17.69;45.77;101428.06;4971229;28;20057;-73
2022/10/28 07:12:23;;;;;;;5.90;2.92;;;;;;;17.71;45.66;101425.13;4972397;28;20041;-73
2022/10/28 07:14:51;;;;;;;8.52;3.08;;;;;;;17.70;45.59;101421.50;4973236;28;20407;-72
2022/10/28 07:17:18;;;;;;;6.80;3.25;;;;;;;17.72;45.22;101426.88;4971532;28;20542;-73
2022/10/28 07:19:46;;;;;;;7.25;2.92;;;;;;;17.72;45.62;101422.22;4972635;28;20061;-72
2022/10/28 07:22:14;;;;;;;6.53;3.33;;;;;;;17.73;45.51;101420.31;4970487;28;20055;-72
2022/10/28 07:24:43;;;;;;;7.63;3.58;;;;;;;17.76;45.44;101431.94;4972911;28;20078;-73
2022/10/28 07:27:11;;;;;;;6.38;3.08;;;;;;;17.76;45.72;101433.81;4971065;28;20511;-73
2022/10/28 07:29:39;;;;;;;6.03;3.00;;;;;;;17.77;45.38;101427.25;4972666;28;20559;-73
2022/10/28 07:32:07;;;;;;;7.70;3.20;;;;;;;17.80;45.83;101431.59;4970698;28;20098;-76
2022/10/28 07:34:35;;;;;;;7.65;3.10;;;;;;;17.81;45.87;101433.34;4972478;28;20435;-76
2022/10/28 07:37:04;;;;;;;5.97;2.55;;;;;;;17.83;45.67;101432.13;4958644;28;20043;-76
2022/10/28 07:39:32;;;;;;;6.68;3.10;;;;;;;17.85;45.38;101430.06;4960623;28;20051;-76
2022/10/28 07:42:01;;;;;;;6.38;2.63;;;;;;;17.90;45.59;101440.63;4971061;28;20131;-76
2022/10/28 07:44:29;;;;;;;5.65;2.70;;;;;;;17.90;45.71;101437.84;4970733;28;20432;-76
2022/10/28 07:46:57;;;;;;;5.95;2.60;;;;;;;17.93;45.50;101434.75;4960559;28;20499;-76
2022/10/28 07:49:25;;;;;;;7.55;2.65;;;;;;;17.95;45.37;101432.69;4971982;28;20055;-76
2022/10/28 07:51:53;;;;;;;4.68;2.78;;;;;;;17.97;45.56;101439.81;4965313;28;20051;-76
2022/10/28 07:54:21;;;;;;;6.20;3.15;;;;;;;17.99;45.36;101448.78;4956920;28;20071;-76
2022/10/28 07:56:48;;;;;;;8.23;2.90;;;;;;;18.02;45.34;101448.47;4959952;28;20045;-76
2022/10/28 07:59:19;;;;;;;5.97;2.90;;;;;;;18.07;45.57;101456.25;4972116;28;20043;-76
2022/10/28 08:01:53;;;;;;;8.45;3.10;;;;;;;18.07;45.67;101462.66;4969950;28;20692;-76
2022/10/28 08:04:22;;;;;;;6.72;2.88;;;;;;;18.10;45.42;101462.31;4970748;28;20540;-76
2022/10/28 08:06:50;;;;;;;6.40;3.15;;;;;;;18.13;45.40;101464.78;4954358;28;20132;-76
2022/10/28 08:09:18;;;;;;;7.70;3.28;;;;;;;18.17;45.23;101461.66;4966724;28;20043;-76
2022/10/28 08:11:46;;;;;;;5.82;2.63;;;;;;;18.18;45.08;101467.03;4957742;28;20043;-76
2022/10/28 08:14:14;;;;;;;5.55;2.83;;;;;;;18.23;45.54;101455.41;4967049;28;20047;-76
2022/10/28 08:16:43;;;;;;;8.00;3.17;;;;;;;18.27;45.21;101462.38;4967246;28;20475;-76
2022/10/28 08:19:11;;;;;;;7.50;3.25;;;;;;;18.28;45.38;101455.78;4970810;28;20109;-76
2022/10/28 08:21:39;;;;;;;6.63;2.95;;;;;;;18.30;45.27;101448.19;4958673;28;20126;-76
2022/10/28 08:24:07;;;;;;;4.75;2.65;;;;;;;18.34;45.20;101452.31;4965717;28;20047;-76
2022/10/28 08:26:35;;;;;;;7.85;2.95;;;;;;;18.35;45.26;101440.22;4962062;28;20056;-76
2022/10/28 08:29:03;;;;;;;7.00;3.05;;;;;;;18.35;44.97;101435.53;4930856;29;20051;-76
2022/10/28 08:31:33;;;;;;;8.52;3.22;;;;;;;18.40;44.67;101435.88;4935707;29;20048;-76
2022/10/28 08:34:02;;;;;;;6.90;2.72;;;;;;;18.42;44.90;101442.13;4939026;29;20102;-76
2022/10/28 08:36:30;;;;;;;5.47;2.95;;;;;;;18.42;44.79;101449.56;4937901;28;20063;-76
2022/10/28 08:39:00;;;;;;;7.47;3.20;;;;;;;18.44;44.88;101450.28;4947940;29;20051;-76
2022/10/28 08:41:34;;;;;;;7.80;2.90;;;;;;;18.49;44.55;101445.09;4948395;28;20047;-76
2022/10/28 08:44:47;;;;;;;5.40;2.80;;;;;;;18.47;44.52;101441.63;4950451;28;20051;-76
2022/10/28 08:47:25;;;;;;;9.00;3.40;;;;;;;18.51;44.65;101443.91;4906535;28;20043;-76
2022/10/28 08:50:02;;;;;;;6.57;3.03;;;;;;;18.62;44.75;101439.06;4970171;28;20154;-76
2022/10/28 08:52:33;;;;;;;7.75;3.20;;;;;;;18.67;45.24;101434.72;4969996;28;20047;-76
2022/10/28 08:55:06;;;;;;;7.50;3.05;;;;;;;18.73;44.45;101438.69;4961334;28;20483;-76
2022/10/28 08:57:39;;;;;;;8.45;2.92;;;;;;;18.81;44.58;101447.00;4957562;28;20069;-76
2022/10/28 09:00:16;;;;;;;7.97;3.13;;;;;;;18.87;44.64;101422.25;4971209;28;20070;-76
2022/10/28 09:02:53;;;;;;;8.30;3.30;;;;;;;18.97;44.30;101430.34;4951654;28;20047;-76
2022/10/28 09:05:25;;;;;;;5.38;2.78;;;;;;;19.05;44.29;101418.41;4968475;28;20082;-76
2022/10/28 09:07:54;;;;;;;7.32;3.30;;;;;;;19.12;44.60;101427.75;4969824;28;20070;-76
2022/10/28 09:10:45;;;;;;;8.18;2.83;;;;;;;19.22;44.29;101432.06;4960336;28;20042;-76
2022/10/28 09:13:23;;;;;;;5.10;2.83;;;;;;;19.31;44.04;101435.69;4962601;28;20118;-77
2022/10/28 09:16:00;;;;;;;6.80;3.10;;;;;;;19.42;43.53;101424.22;4963635;28;20043;-75
2022/10/28 09:18:48;;;;;;;7.28;3.10;;;;;;;19.49;43.26;101429.91;4934186;28;20039;-75
2022/10/28 09:21:21;;;;;;;7.88;3.30;;;;;;;19.57;43.57;101424.31;4939154;28;20049;-76
2022/10/28 09:23:54;;;;;;;;;;;;;;;19.33;44.74;101421.63;4950595;29;20063;-75
2022/10/28 09:26:36;;;;;;;6.43;3.00;;;;;;;19.72;43.73;101416.97;4939073;29;19965;-76
2022/10/28 09:29:24;;;;;;;4.78;2.50;;;;;;;19.82;42.88;101413.97;4946201;28;20102;-77
2022/10/28 09:31:56;;;;;;;7.25;3.00;;;;;;;19.90;43.62;101414.78;4945073;28;20047;-77
2022/10/28 09:34:29;;;;;;;;;;;;;;;19.66;43.96;101417.69;4951798;29;20149;-77
2022/10/28 09:37:04;;;;;;;6.45;3.03;;;;;;;19.95;42.76;101417.91;4941404;28;20403;-75
2022/10/28 09:39:37;;;;;;;8.88;3.17;;;;;;;20.07;42.86;101412.81;4941345;28;20137;-76
2022/10/28 09:42:04;;;;;;;;;;;;;;;19.80;43.60;101413.28;4949740;28;20697;-77
2022/10/28 09:44:39;;;;;;;8.27;3.10;;;;;;;20.14;42.34;101415.72;4949056;29;20012;-77
2022/10/28 09:47:15;;;;;;;5.97;3.08;;;;;;;20.22;42.55;101416.53;4952727;28;20059;-78
2022/10/28 09:49:43;;;;;;;9.48;3.25;;;;;;;20.25;42.79;101430.06;4943413;28;20057;-77
2022/10/28 09:52:19;;;;;;;7.45;3.05;;;;;;;20.35;42.38;101424.28;4951358;28;20039;-76
2022/10/28 09:54:50;;;;;;;7.32;2.90;;;;;;;20.39;42.13;101420.91;4965430;28;20134;-76
2022/10/28 09:57:19;;;;;;;6.40;3.00;;;;;;;20.44;42.67;101416.72;4969479;28;20047;-76
2022/10/28 09:59:47;;;;;;;6.60;3.38;;;;;;;20.52;42.54;101427.78;4972634;28;20046;-77
2022/10/28 10:02:26;;;;;;;9.25;3.17;;;;;;;20.59;41.71;101423.25;4946146;28;20051;-76
2022/10/28 10:04:56;;;;;;;6.45;2.83;;;;;;;20.64;41.96;101426.31;4947824;28;20051;-76
2022/10/28 10:07:34;;;;;;;6.53;3.30;;;;;;;20.70;41.05;101425.56;4958372;28;20043;-76
2022/10/28 10:10:10;;;;;;;7.57;3.13;;;;;;;20.73;40.96;101428.84;4964237;28;20042;-76
2022/10/28 10:12:38;;;;;;;5.90;2.85;;;;;;;20.73;41.64;101431.63;4966105;28;20580;-77
2022/10/28 10:15:11;;;;;;;6.82;2.83;;;;;;;20.76;41.41;101431.25;4956879;28;20054;-76
2022/10/28 10:17:44;;;;;;;8.20;3.00;;;;;;;20.78;41.11;101417.16;4958189;28;20058;-72
2022/10/28 10:20:13;;;;;;;6.15;2.75;;;;;;;20.77;41.33;101423.78;4953136;28;20143;-73
2022/10/28 10:22:44;;;;;;;6.18;2.95;;;;;;;20.81;41.08;101422.34;4967040;28;20089;-68
2022/10/28 10:25:29;;;;;;;7.88;2.97;;;;;;;20.83;40.74;101413.81;4968200;28;20042;-70
2022/10/28 10:28:01;;;;;;;8.00;2.85;;;;;;;20.86;41.11;101410.66;4966309;28;20050;-71
2022/10/28 10:30:32;;;;;;;6.50;2.80;;;;;;;20.87;41.02;101409.59;4960300;28;20074;-69
2022/10/28 10:33:02;;;;;;;7.57;2.95;;;;;;;20.87;41.27;101413.22;4967512;28;20063;-69
2022/10/28 10:35:32;;;;;;;6.68;2.90;;;;;;;20.92;41.39;101419.13;4962357;28;20488;-70
2022/10/28 10:38:04;;;;;;;7.47;3.00;;;;;;;20.95;40.73;101415.94;4958384;28;20046;-70
2022/10/28 10:40:34;;;;;;;7.30;2.50;;;;;;;20.96;41.01;101414.03;4954112;28;20034;-70
2022/10/28 10:43:23;;;;;;;6.75;2.80;;;;;;;21.00;40.57;101418.16;4967774;28;20042;-70
2022/10/28 10:45:59;;;;;;;7.50;2.80;;;;;;;21.03;41.05;101401.94;4964659;28;20047;-70
2022/10/28 10:48:27;;;;;;;9.90;3.00;;;;;;;21.06;40.93;101409.06;4959993;28;20481;-70
2022/10/28 10:50:55;;;;;;;7.38;2.95;;;;;;;21.09;40.88;101411.47;4964610;28;20046;-70
2022/10/28 10:53:27;;;;;;;7.32;2.90;;;;;;;21.15;40.67;101402.34;4964521;28;20043;-71
2022/10/28 10:55:59;;;;;;;5.32;2.65;;;;;;;21.16;40.75;101404.06;4968139;28;20057;-70
2022/10/28 10:58:31;;;;;;;7.18;2.90;;;;;;;21.20;40.60;101405.41;4967840;28;20050;-70
2022/10/28 11:01:02;;;;;;;7.63;3.00;;;;;;;21.21;40.37;101401.56;4960746;28;20523;-70
2022/10/28 11:03:35;;;;;;;5.97;3.10;;;;;;;21.24;40.84;101397.56;4965241;28;20290;-70
2022/10/28 11:06:05;;;;;;;6.32;2.75;;;;;;;21.29;40.65;101400.66;4960582;28;20046;-70
2022/10/28 11:08:58;;;;;;;7.30;3.00;;;;;;;21.31;40.40;101396.63;4967494;28;20089;-70
2022/10/28 11:11:34;;;;;;;6.43;2.78;;;;;;;21.37;39.83;101392.19;4964776;28;20046;-70
2022/10/28 11:14:04;;;;;;;7.00;2.83;;;;;;;21.36;40.37;101387.69;4961597;28;20047;-70
2022/10/28 11:16:32;;;;;;;7.07;2.97;;;;;;;21.39;40.50;101381.75;4967445;28;20046;-70
2022/10/28 11:19:19;;;;;;;8.27;2.88;;;;;;;21.43;39.73;101383.09;4956367;28;20087;-69
2022/10/28 11:21:58;;;;;;;5.85;3.00;;;;;;;21.46;40.13;101380.78;4963251;28;20063;-70
2022/10/28 11:25:07;;;;;;;6.97;3.15;;;;;;;21.49;39.91;101377.59;4968615;28;20043;-70
2022/10/28 11:27:48;;;;;;;6.03;2.85;;;;;;;21.53;39.98;101370.56;4950237;28;20051;-70
2022/10/28 11:30:29;;;;;;;7.93;3.40;;;;;;;21.58;40.15;101367.22;4937418;29;20568;-70
2022/10/28 11:33:11;;;;;;;5.68;2.67;;;;;;;21.64;39.87;101366.44;4942716;28;20186;-70
2022/10/28 11:36:08;;;;;;;4.72;2.53;;;;;;;21.68;40.01;101369.72;4959489;28;20071;-71
2022/10/28 11:39:02;;;;;;;11.23;3.35;;;;;;;21.70;40.03;101365.66;4964077;28;20129;-70
2022/10/28 11:41:40;;;;;;;7.38;3.42;;;;;;;21.75;39.95;101360.38;4943340;28;20047;-70
2022/10/28 11:44:20;;;;;;;7.53;2.97;;;;;;;21.81;39.63;101367.06;4951079;28;20035;-71
2022/10/28 11:46:58;;;;;;;7.75;3.35;;;;;;;21.85;39.78;101368.41;4950523;28;20047;-71